sensor_id;sensor_type;location;lat;lon;timestamp;pressure;altitude;pressure_sealevel;temperature;humidity
85166;BME280;75533;52.100;10.228;2024-02-21T00:00:50;100568.09;;;18.09;48.10
85166;BME280;75533;52.100;10.228;2024-02-21T00:03:15;100579.16;;;18.09;47.71
85166;BME280;75533;52.100;10.228;2024-02-21T00:05:40;100574.03;;;18.06;47.87
85166;BME280;75533;52.100;10.228;2024-02-21T00:08:06;100580.84;;;18.10;47.70
85166;BME280;75533;52.100;10.228;2024-02-21T00:10:31;100579.16;;;18.09;47.92
85166;BME280;75533;52.100;10.228;2024-02-21T00:12:58;100587.63;;;18.08;47.97
85166;BME280;75533;52.100;10.228;2024-02-21T00:15:25;100579.34;;;18.08;48.04
85166;BME280;75533;52.100;10.228;2024-02-21T00:17:50;100575.94;;;18.06;47.84
85166;BME280;75533;52.100;10.228;2024-02-21T00:20:15;100586.13;;;18.05;47.88
85166;BME280;75533;52.100;10.228;2024-02-21T00:22:41;100584.22;;;18.06;47.91
85166;BME280;75533;52.100;10.228;2024-02-21T00:25:06;100584.22;;;18.06;47.85
85166;BME280;75533;52.100;10.228;2024-02-21T00:27:32;100587.38;;;18.02;48.19
85166;BME280;75533;52.100;10.228;2024-02-21T00:29:57;100582.50;;;18.05;47.94
85166;BME280;75533;52.100;10.228;2024-02-21T00:32:23;100579.94;;;18.03;47.84
85166;BME280;75533;52.100;10.228;2024-02-21T00:34:48;100587.38;;;18.02;47.66
85166;BME280;75533;52.100;10.228;2024-02-21T00:37:13;100579.09;;;18.02;47.88
85166;BME280;75533;52.100;10.228;2024-02-21T00:39:39;100567.56;;;17.99;48.48
85166;BME280;75533;52.100;10.228;2024-02-21T00:42:04;100579.94;;;18.03;47.92
85166;BME280;75533;52.100;10.228;2024-02-21T00:44:30;100572.03;;;18.00;48.22
85166;BME280;75533;52.100;10.228;2024-02-21T00:46:55;100561.88;;;18.00;47.97
85166;BME280;75533;52.100;10.228;2024-02-21T00:49:20;100565.47;;;18.01;47.78
85166;BME280;75533;52.100;10.228;2024-02-21T00:51:46;100557.34;;;17.99;47.74
85166;BME280;75533;52.100;10.228;2024-02-21T00:54:12;100565.47;;;18.01;47.87
85166;BME280;75533;52.100;10.228;2024-02-21T00:56:37;100549.06;;;17.99;47.68
85166;BME280;75533;52.100;10.228;2024-02-21T00:59:02;100544.59;;;17.98;48.03
85166;BME280;75533;52.100;10.228;2024-02-21T01:01:27;100550.13;;;17.98;47.80
85166;BME280;75533;52.100;10.228;2024-02-21T01:03:53;100540.34;;;17.96;47.80
85166;BME280;75533;52.100;10.228;2024-02-21T01:06:19;100547.56;;;17.97;47.73
85166;BME280;75533;52.100;10.228;2024-02-21T01:08:46;100537.38;;;17.97;48.05
85166;BME280;75533;52.100;10.228;2024-02-21T01:11:12;100542.91;;;17.97;47.89
85166;BME280;75533;52.100;10.228;2024-02-21T01:13:38;100542.25;;;17.95;47.76
85166;BME280;75533;52.100;10.228;2024-02-21T01:16:03;100547.75;;;17.95;47.91
85166;BME280;75533;52.100;10.228;2024-02-21T01:18:29;100537.78;;;17.94;48.03
85166;BME280;75533;52.100;10.228;2024-02-21T01:20:54;100533.94;;;17.95;47.94
85166;BME280;75533;52.100;10.228;2024-02-21T01:23:20;100528.81;;;17.92;47.92
85166;BME280;75533;52.100;10.228;2024-02-21T01:25:45;100521.59;;;17.91;47.78
85166;BME280;75533;52.100;10.228;2024-02-21T01:28:10;100516.06;;;17.91;47.83
85166;BME280;75533;52.100;10.228;2024-02-21T01:30:36;100515.81;;;17.86;47.77
85166;BME280;75533;52.100;10.228;2024-02-21T01:33:01;100509.91;;;17.89;47.66
85166;BME280;75533;52.100;10.228;2024-02-21T01:35:26;100516.28;;;17.90;47.86
85166;BME280;75533;52.100;10.228;2024-02-21T01:37:52;100517.13;;;17.90;47.97
85166;BME280;75533;52.100;10.228;2024-02-21T01:40:17;100521.78;;;17.90;48.03
85166;BME280;75533;52.100;10.228;2024-02-21T01:42:43;100505.22;;;17.90;48.22
85166;BME280;75533;52.100;10.228;2024-02-21T01:45:08;100496.09;;;17.89;47.80
85166;BME280;75533;52.100;10.228;2024-02-21T01:47:34;100485.22;;;17.88;47.76
85166;BME280;75533;52.100;10.228;2024-02-21T01:50:01;100490.97;;;17.86;47.77
85166;BME280;75533;52.100;10.228;2024-02-21T01:52:28;100492.66;;;17.87;48.18
85166;BME280;75533;52.100;10.228;2024-02-21T01:54:54;100492.66;;;17.87;47.78
85166;BME280;75533;52.100;10.228;2024-02-21T01:57:19;100487.16;;;17.87;47.82
85166;BME280;75533;52.100;10.228;2024-02-21T01:59:47;100489.91;;;17.87;47.69
85166;BME280;75533;52.100;10.228;2024-02-21T02:02:13;100479.91;;;17.86;47.95
85166;BME280;75533;52.100;10.228;2024-02-21T02:04:38;100481.81;;;17.86;47.73
85166;BME280;75533;52.100;10.228;2024-02-21T02:07:06;100479.91;;;17.86;47.76
85166;BME280;75533;52.100;10.228;2024-02-21T02:09:32;100482.03;;;17.84;47.59
85166;BME280;75533;52.100;10.228;2024-02-21T02:11:57;100480.13;;;17.85;47.59
85166;BME280;75533;52.100;10.228;2024-02-21T02:14:25;100481.81;;;17.86;47.76
85166;BME280;75533;52.100;10.228;2024-02-21T02:16:50;100472.03;;;17.83;48.08
85166;BME280;75533;52.100;10.228;2024-02-21T02:19:15;100468.63;;;17.81;48.07
85166;BME280;75533;52.100;10.228;2024-02-21T02:21:46;100469.25;;;17.83;47.91
85166;BME280;75533;52.100;10.228;2024-02-21T02:24:11;100468.41;;;17.83;47.71
85166;BME280;75533;52.100;10.228;2024-02-21T02:26:39;100462.88;;;17.83;47.79
85166;BME280;75533;52.100;10.228;2024-02-21T02:29:08;100458.63;;;17.80;47.85
85166;BME280;75533;52.100;10.228;2024-02-21T02:31:34;100451.19;;;17.81;47.61
85166;BME280;75533;52.100;10.228;2024-02-21T02:34:00;100443.75;;;17.81;47.86
85166;BME280;75533;52.100;10.228;2024-02-21T02:36:25;100434.81;;;17.79;47.93
85166;BME280;75533;52.100;10.228;2024-02-21T02:38:51;100426.53;;;17.79;47.96
85166;BME280;75533;52.100;10.228;2024-02-21T02:41:16;100429.47;;;17.78;47.84
85166;BME280;75533;52.100;10.228;2024-02-21T02:43:41;100419.47;;;17.77;47.83
85166;BME280;75533;52.100;10.228;2024-02-21T02:46:06;100428.44;;;17.79;47.83
85166;BME280;75533;52.100;10.228;2024-02-21T02:48:32;100424.78;;;17.78;47.73
85166;BME280;75533;52.100;10.228;2024-02-21T02:50:57;100422.91;;;17.79;47.91
85166;BME280;75533;52.100;10.228;2024-02-21T02:53:22;100410.13;;;17.78;47.84
85166;BME280;75533;52.100;10.228;2024-02-21T02:55:48;100398.22;;;17.77;47.51
85166;BME280;75533;52.100;10.228;2024-02-21T02:58:13;100397.38;;;17.77;47.89
85166;BME280;75533;52.100;10.228;2024-02-21T03:00:38;100391.84;;;17.77;48.03
85166;BME280;75533;52.100;10.228;2024-02-21T03:03:04;100389.28;;;17.75;47.53
85166;BME280;75533;52.100;10.228;2024-02-21T03:05:30;100382.72;;;17.76;47.77
85166;BME280;75533;52.100;10.228;2024-02-21T03:07:55;100377.59;;;17.73;47.64
85166;BME280;75533;52.100;10.228;2024-02-21T03:10:21;100390.34;;;17.74;47.79
85166;BME280;75533;52.100;10.228;2024-02-21T03:12:46;100370.16;;;17.74;47.86
85166;BME280;75533;52.100;10.228;2024-02-21T03:15:12;100374.84;;;17.73;48.00
85166;BME280;75533;52.100;10.228;2024-02-21T03:17:38;100368.66;;;17.71;47.55
85166;BME280;75533;52.100;10.228;2024-02-21T03:20:04;100377.59;;;17.73;47.76
85166;BME280;75533;52.100;10.228;2024-02-21T03:22:38;100353.69;;;17.59;47.65
85166;BME280;75533;52.100;10.228;2024-02-21T03:25:04;100385.25;;;17.71;47.79
85166;BME280;75533;52.100;10.228;2024-02-21T03:27:30;100386.28;;;17.70;47.74
85166;BME280;75533;52.100;10.228;2024-02-21T03:29:55;100376.31;;;17.69;47.80
85166;BME280;75533;52.100;10.228;2024-02-21T03:32:20;100362.50;;;17.69;47.84
85166;BME280;75533;52.100;10.228;2024-02-21T03:34:46;100376.31;;;17.69;47.79
85166;BME280;75533;52.100;10.228;2024-02-21T03:37:11;100361.66;;;17.68;47.82
85166;BME280;75533;52.100;10.228;2024-02-21T03:39:39;100357.81;;;17.69;47.74
85166;BME280;75533;52.100;10.228;2024-02-21T03:42:05;100336.50;;;17.63;47.88
85166;BME280;75533;52.100;10.228;2024-02-21T03:44:31;100335.09;;;17.67;47.87
85166;BME280;75533;52.100;10.228;2024-02-21T03:46:58;100326.97;;;17.66;47.77
85166;BME280;75533;52.100;10.228;2024-02-21T03:49:24;100334.59;;;17.64;47.83
85166;BME280;75533;52.100;10.228;2024-02-21T03:51:49;100336.09;;;17.66;47.90
85166;BME280;75533;52.100;10.228;2024-02-21T03:54:14;100332.31;;;17.67;47.17
85166;BME280;75533;52.100;10.228;2024-02-21T03:56:40;100325.06;;;17.66;47.69
85166;BME280;75533;52.100;10.228;2024-02-21T03:59:06;100309.75;;;17.64;47.80
85166;BME280;75533;52.100;10.228;2024-02-21T04:01:33;100311.47;;;17.65;47.71
85166;BME280;75533;52.100;10.228;2024-02-21T04:03:58;100305.09;;;17.64;47.78
85166;BME280;75533;52.100;10.228;2024-02-21T04:06:24;100287.81;;;17.56;47.98
85166;BME280;75533;52.100;10.228;2024-02-21T04:08:49;100296.16;;;17.62;47.85
85166;BME280;75533;52.100;10.228;2024-02-21T04:11:14;100295.97;;;17.64;47.84
85166;BME280;75533;52.100;10.228;2024-02-21T04:13:40;100296.16;;;17.62;47.95
85166;BME280;75533;52.100;10.228;2024-02-21T04:16:05;100301.03;;;17.60;47.82
85166;BME280;75533;52.100;10.228;2024-02-21T04:18:31;100280.84;;;17.60;47.91
85166;BME280;75533;52.100;10.228;2024-02-21T04:20:56;100272.56;;;17.60;47.83
85166;BME280;75533;52.100;10.228;2024-02-21T04:23:22;100288.09;;;17.61;47.79
85166;BME280;75533;52.100;10.228;2024-02-21T04:25:47;100290.19;;;17.59;47.79
85166;BME280;75533;52.100;10.228;2024-02-21T04:28:12;100284.66;;;17.59;47.67
85166;BME280;75533;52.100;10.228;2024-02-21T04:30:38;100282.97;;;17.58;47.80
85166;BME280;75533;52.100;10.228;2024-02-21T04:33:03;100287.44;;;17.59;48.00
85166;BME280;75533;52.100;10.228;2024-02-21T04:35:28;100285.72;;;17.58;47.81
85166;BME280;75533;52.100;10.228;2024-02-21T04:37:54;100286.78;;;17.57;47.74
85166;BME280;75533;52.100;10.228;2024-02-21T04:40:20;100291.25;;;17.58;47.82
85166;BME280;75533;52.100;10.228;2024-02-21T04:42:45;100294.00;;;17.58;48.01
85166;BME280;75533;52.100;10.228;2024-02-21T04:45:10;100307.81;;;17.58;47.90
85166;BME280;75533;52.100;10.228;2024-02-21T04:47:36;100299.69;;;17.56;47.66
85166;BME280;75533;52.100;10.228;2024-02-21T04:50:01;100285.22;;;17.48;47.82
85166;BME280;75533;52.100;10.228;2024-02-21T04:52:27;100292.44;;;17.49;47.83
85166;BME280;75533;52.100;10.228;2024-02-21T04:54:52;100300.75;;;17.55;48.00
85166;BME280;75533;52.100;10.228;2024-02-21T04:57:17;100298.47;;;17.59;47.72
85166;BME280;75533;52.100;10.228;2024-02-21T04:59:44;100308.88;;;17.57;48.40
85166;BME280;75533;52.100;10.228;2024-02-21T05:02:10;100310.56;;;17.58;48.18
85166;BME280;75533;52.100;10.228;2024-02-21T05:04:36;100310.56;;;17.58;48.06
85166;BME280;75533;52.100;10.228;2024-02-21T05:07:03;100309.66;;;17.51;48.14
85166;BME280;75533;52.100;10.228;2024-02-21T05:09:29;100322.84;;;17.55;48.08
85166;BME280;75533;52.100;10.228;2024-02-21T05:11:54;100320.94;;;17.56;48.10
85166;BME280;75533;52.100;10.228;2024-02-21T05:14:19;100318.16;;;17.56;48.19
85166;BME280;75533;52.100;10.228;2024-02-21T05:16:45;100319.09;;;17.63;47.76
85166;BME280;75533;52.100;10.228;2024-02-21T05:19:10;100323.13;;;17.60;48.00
85166;BME280;75533;52.100;10.228;2024-02-21T05:21:35;100324.38;;;17.58;48.07
85166;BME280;75533;52.100;10.228;2024-02-21T05:24:01;100325.22;;;17.58;48.49
85166;BME280;75533;52.100;10.228;2024-02-21T05:26:27;100323.03;;;17.54;47.99
85166;BME280;75533;52.100;10.228;2024-02-21T05:28:52;100329.03;;;17.57;48.01
85166;BME280;75533;52.100;10.228;2024-02-21T05:31:18;100334.38;;;17.59;48.12
85166;BME280;75533;52.100;10.228;2024-02-21T05:33:44;100326.09;;;17.59;48.49
85166;BME280;75533;52.100;10.228;2024-02-21T05:36:10;100321.63;;;17.58;48.34
85166;BME280;75533;52.100;10.228;2024-02-21T05:38:36;100326.72;;;17.61;48.33
85166;BME280;75533;52.100;10.228;2024-02-21T05:41:01;100322.06;;;17.61;48.35
85166;BME280;75533;52.100;10.228;2024-02-21T05:43:26;100331.84;;;17.64;48.20
85166;BME280;75533;52.100;10.228;2024-02-21T05:45:52;100335.09;;;17.67;48.17
85166;BME280;75533;52.100;10.228;2024-02-21T05:48:17;100330.22;;;17.69;48.34
85166;BME280;75533;52.100;10.228;2024-02-21T05:50:42;100325.53;;;17.70;48.39
85166;BME280;75533;52.100;10.228;2024-02-21T05:53:08;100313.66;;;17.69;48.40
85166;BME280;75533;52.100;10.228;2024-02-21T05:55:35;100318.16;;;17.77;48.21
85166;BME280;75533;52.100;10.228;2024-02-21T05:58:00;100307.38;;;17.82;47.87
85166;BME280;75533;52.100;10.228;2024-02-21T06:00:26;100310.13;;;17.82;48.11
85166;BME280;75533;52.100;10.228;2024-02-21T06:02:51;100313.97;;;17.81;48.15
85166;BME280;75533;52.100;10.228;2024-02-21T06:05:16;100301.00;;;17.82;48.18
85166;BME280;75533;52.100;10.228;2024-02-21T06:07:42;100305.47;;;17.83;48.30
85166;BME280;75533;52.100;10.228;2024-02-21T06:10:07;100305.69;;;17.88;47.90
85166;BME280;75533;52.100;10.228;2024-02-21T06:12:33;100304.44;;;17.90;48.50
85166;BME280;75533;52.100;10.228;2024-02-21T06:14:58;100301.50;;;17.98;48.05
85166;BME280;75533;52.100;10.228;2024-02-21T06:17:24;100299.41;;;18.00;48.06
85166;BME280;75533;52.100;10.228;2024-02-21T06:19:49;100293.06;;;18.07;47.83
85166;BME280;75533;52.100;10.228;2024-02-21T06:22:14;100284.13;;;18.05;48.06
85166;BME280;75533;52.100;10.228;2024-02-21T06:24:39;100272.03;;;18.12;47.81
85166;BME280;75533;52.100;10.228;2024-02-21T06:27:05;100277.78;;;18.11;47.81
85166;BME280;75533;52.100;10.228;2024-02-21T06:29:31;100272.25;;;18.11;47.93
85166;BME280;75533;52.100;10.228;2024-02-21T06:31:57;100272.03;;;18.06;48.10
85166;BME280;75533;52.100;10.228;2024-02-21T06:34:22;100271.16;;;18.05;47.72
85166;BME280;75533;52.100;10.228;2024-02-21T06:36:49;100265.44;;;18.07;47.68
85166;BME280;75533;52.100;10.228;2024-02-21T06:39:14;100260.13;;;18.12;47.56
85166;BME280;75533;52.100;10.228;2024-02-21T06:41:40;100253.78;;;18.18;47.40
85166;BME280;75533;52.100;10.228;2024-02-21T06:44:05;100247.19;;;18.19;47.64
85166;BME280;75533;52.100;10.228;2024-02-21T06:46:31;100257.84;;;18.22;47.53
85166;BME280;75533;52.100;10.228;2024-02-21T06:48:58;100253.41;;;18.27;47.13
85166;BME280;75533;52.100;10.228;2024-02-21T06:51:26;100240.22;;;18.29;47.24
85166;BME280;75533;52.100;10.228;2024-02-21T06:53:52;100247.25;;;18.32;47.16
85166;BME280;75533;52.100;10.228;2024-02-21T06:56:17;100238.09;;;18.31;47.40
85166;BME280;75533;52.100;10.228;2024-02-21T06:58:42;100247.88;;;18.34;47.14
85166;BME280;75533;52.100;10.228;2024-02-21T07:01:08;100240.25;;;18.36;47.38
85166;BME280;75533;52.100;10.228;2024-02-21T07:03:34;100231.94;;;18.36;47.36
85166;BME280;75533;52.100;10.228;2024-02-21T07:05:59;100228.75;;;18.32;47.24
85166;BME280;75533;52.100;10.228;2024-02-21T07:08:25;100235.75;;;18.28;47.25
85166;BME280;75533;52.100;10.228;2024-02-21T07:10:50;100241.09;;;18.30;47.38
85166;BME280;75533;52.100;10.228;2024-02-21T07:13:15;100244.28;;;18.33;47.32
85166;BME280;75533;52.100;10.228;2024-02-21T07:15:41;100245.13;;;18.41;47.34
85166;BME280;75533;52.100;10.228;2024-02-21T07:18:07;100249.81;;;18.40;47.08
85166;BME280;75533;52.100;10.228;2024-02-21T07:20:32;100252.38;;;18.42;47.29
85166;BME280;75533;52.100;10.228;2024-02-21T07:23:03;100256.03;;;18.49;47.16
85166;BME280;75533;52.100;10.228;2024-02-21T07:25:29;100259.00;;;18.54;47.17
85166;BME280;75533;52.100;10.228;2024-02-21T07:27:54;100260.06;;;18.53;46.87
85166;BME280;75533;52.100;10.228;2024-02-21T07:30:19;100264.34;;;18.55;46.89
85166;BME280;75533;52.100;10.228;2024-02-21T07:32:45;100268.81;;;18.56;47.10
85166;BME280;75533;52.100;10.228;2024-02-21T07:35:10;100264.75;;;18.59;47.01
85166;BME280;75533;52.100;10.228;2024-02-21T07:37:37;100261.78;;;18.60;46.87
85166;BME280;75533;52.100;10.228;2024-02-21T07:40:05;100265.63;;;18.59;46.90
85166;BME280;75533;52.100;10.228;2024-02-21T07:42:30;100255.19;;;18.61;47.02
85166;BME280;75533;52.100;10.228;2024-02-21T07:44:56;100251.19;;;18.64;47.28
85166;BME280;75533;52.100;10.228;2024-02-21T07:47:22;100255.19;;;18.61;47.06
85166;BME280;75533;52.100;10.228;2024-02-21T07:49:47;100261.41;;;18.63;46.94
85166;BME280;75533;52.100;10.228;2024-02-21T07:52:14;100257.56;;;18.65;46.88
85166;BME280;75533;52.100;10.228;2024-02-21T07:54:39;100263.34;;;18.70;47.18
85166;BME280;75533;52.100;10.228;2024-02-21T07:57:04;100268.03;;;18.69;47.30
85166;BME280;75533;52.100;10.228;2024-02-21T07:59:30;100263.56;;;18.75;46.89
85166;BME280;75533;52.100;10.228;2024-02-21T08:01:56;100264.84;;;18.72;46.82
85166;BME280;75533;52.100;10.228;2024-02-21T08:04:22;100272.91;;;18.74;46.94
85166;BME280;75533;52.100;10.228;2024-02-21T08:06:52;100278.03;;;18.77;46.91
85166;BME280;75533;52.100;10.228;2024-02-21T08:09:18;100276.31;;;18.76;46.96
85166;BME280;75533;52.100;10.228;2024-02-21T08:11:44;100275.47;;;18.75;47.13
85166;BME280;75533;52.100;10.228;2024-02-21T08:14:09;100276.31;;;18.76;47.13
85166;BME280;75533;52.100;10.228;2024-02-21T08:16:34;100266.13;;;18.76;46.83
85166;BME280;75533;52.100;10.228;2024-02-21T08:18:59;100270.78;;;18.76;47.12
85166;BME280;75533;52.100;10.228;2024-02-21T08:21:27;100267.81;;;18.77;47.05
85166;BME280;75533;52.100;10.228;2024-02-21T08:23:52;100249.09;;;18.73;45.60
85166;BME280;75533;52.100;10.228;2024-02-21T08:26:19;100245.91;;;18.69;46.29
85166;BME280;75533;52.100;10.228;2024-02-21T08:28:45;100246.31;;;18.73;46.41
85166;BME280;75533;52.100;10.228;2024-02-21T08:31:10;100249.94;;;18.73;46.79
85166;BME280;75533;52.100;10.228;2024-02-21T08:33:35;100250.38;;;18.77;46.62
85166;BME280;75533;52.100;10.228;2024-02-21T08:36:01;100244.84;;;18.77;46.66
85166;BME280;75533;52.100;10.228;2024-02-21T08:38:26;100249.94;;;18.80;46.79
85166;BME280;75533;52.100;10.228;2024-02-21T08:40:51;100251.66;;;18.81;46.89
85166;BME280;75533;52.100;10.228;2024-02-21T08:43:17;100246.75;;;18.83;46.90
85166;BME280;75533;52.100;10.228;2024-02-21T08:45:42;100244.00;;;18.83;47.25
85166;BME280;75533;52.100;10.228;2024-02-21T08:48:07;100245.69;;;18.84;46.70
85166;BME280;75533;52.100;10.228;2024-02-21T08:50:33;100245.69;;;18.84;46.71
85166;BME280;75533;52.100;10.228;2024-02-21T08:52:58;100240.63;;;18.87;46.74
85166;BME280;75533;52.100;10.228;2024-02-21T08:55:24;100242.53;;;18.87;46.72
85166;BME280;75533;52.100;10.228;2024-02-21T08:57:49;100244.41;;;18.86;47.08
85166;BME280;75533;52.100;10.228;2024-02-21T09:00:15;100240.63;;;18.87;46.78
85166;BME280;75533;52.100;10.228;2024-02-21T09:02:41;100239.75;;;18.87;46.73
85166;BME280;75533;52.100;10.228;2024-02-21T09:05:10;100238.03;;;18.86;46.85
85166;BME280;75533;52.100;10.228;2024-02-21T09:07:36;100230.78;;;18.85;46.95
85166;BME280;75533;52.100;10.228;2024-02-21T09:10:01;100229.34;;;18.89;46.82
85166;BME280;75533;52.100;10.228;2024-02-21T09:12:28;100231.66;;;18.85;46.46
85166;BME280;75533;52.100;10.228;2024-02-21T09:14:53;100224.00;;;18.87;46.74
85166;BME280;75533;52.100;10.228;2024-02-21T09:17:18;100226.56;;;18.89;46.88
85166;BME280;75533;52.100;10.228;2024-02-21T09:19:46;100217.19;;;18.90;46.54
85166;BME280;75533;52.100;10.228;2024-02-21T09:22:12;100220.19;;;18.88;46.94
85166;BME280;75533;52.100;10.228;2024-02-21T09:24:37;100223.16;;;18.87;46.96
85166;BME280;75533;52.100;10.228;2024-02-21T09:27:02;100229.34;;;18.89;46.95
85166;BME280;75533;52.100;10.228;2024-02-21T09:29:28;100216.56;;;18.88;47.04
85166;BME280;75533;52.100;10.228;2024-02-21T09:31:53;100212.94;;;18.87;46.82
85166;BME280;75533;52.100;10.228;2024-02-21T09:34:18;100213.38;;;18.91;46.88
85166;BME280;75533;52.100;10.228;2024-02-21T09:36:44;100211.88;;;18.88;47.05
85166;BME280;75533;52.100;10.228;2024-02-21T09:39:09;100232.09;;;18.89;46.88
85166;BME280;75533;52.100;10.228;2024-02-21T09:41:37;100216.34;;;18.89;46.96
85166;BME280;75533;52.100;10.228;2024-02-21T09:44:07;100219.75;;;18.91;47.10
85166;BME280;75533;52.100;10.228;2024-02-21T09:46:47;100219.53;;;18.93;46.94
85166;BME280;75533;52.100;10.228;2024-02-21T09:49:33;100218.47;;;18.94;47.09
85166;BME280;75533;52.100;10.228;2024-02-21T09:52:04;100206.34;;;18.95;46.89
85166;BME280;75533;52.100;10.228;2024-02-21T09:54:30;100210.19;;;18.94;47.14
85166;BME280;75533;52.100;10.228;2024-02-21T09:56:59;100209.13;;;18.95;46.98
85166;BME280;75533;52.100;10.228;2024-02-21T09:59:27;100211.25;;;18.93;46.96
85166;BME280;75533;52.100;10.228;2024-02-21T10:01:53;100218.47;;;18.94;47.05
85166;BME280;75533;52.100;10.228;2024-02-21T10:04:20;100207.63;;;18.92;47.19
85166;BME280;75533;52.100;10.228;2024-02-21T10:06:46;100211.88;;;18.95;47.16
85166;BME280;75533;52.100;10.228;2024-02-21T10:09:24;100210.19;;;18.94;47.24
85166;BME280;75533;52.100;10.228;2024-02-21T10:11:53;100208.25;;;18.95;47.14
85166;BME280;75533;52.100;10.228;2024-02-21T10:14:18;100209.31;;;18.93;47.15
85166;BME280;75533;52.100;10.228;2024-02-21T10:16:46;100201.03;;;18.93;47.39
85166;BME280;75533;52.100;10.228;2024-02-21T10:19:21;100200.81;;;18.95;47.39
85166;BME280;75533;52.100;10.228;2024-02-21T10:22:07;100195.91;;;18.97;47.19
85166;BME280;75533;52.100;10.228;2024-02-21T10:24:33;100193.16;;;18.97;47.48
85166;BME280;75533;52.100;10.228;2024-02-21T10:27:03;100190.38;;;18.97;47.37
85166;BME280;75533;52.100;10.228;2024-02-21T10:29:32;100181.22;;;18.97;47.51
85166;BME280;75533;52.100;10.228;2024-02-21T10:32:08;100185.06;;;18.96;47.54
85166;BME280;75533;52.100;10.228;2024-02-21T10:34:35;100192.50;;;19.02;47.42
85166;BME280;75533;52.100;10.228;2024-02-21T10:37:02;100176.75;;;19.02;47.57
85166;BME280;75533;52.100;10.228;2024-02-21T10:39:28;100166.94;;;19.06;47.38
85166;BME280;75533;52.100;10.228;2024-02-21T10:41:56;100176.56;;;19.10;47.39
85166;BME280;75533;52.100;10.228;2024-02-21T10:44:25;100157.78;;;19.06;46.44
85166;BME280;75533;52.100;10.228;2024-02-21T10:46:51;100155.47;;;19.09;46.57
85166;BME280;75533;52.100;10.228;2024-02-21T10:49:22;100149.06;;;19.15;46.92
85166;BME280;75533;52.100;10.228;2024-02-21T10:51:55;100142.03;;;19.19;46.81
85166;BME280;75533;52.100;10.228;2024-02-21T10:54:30;100129.47;;;19.23;46.60
85166;BME280;75533;52.100;10.228;2024-02-21T10:57:00;100126.66;;;19.30;46.58
85166;BME280;75533;52.100;10.228;2024-02-21T10:59:28;100115.81;;;19.29;46.55
85166;BME280;75533;52.100;10.228;2024-02-21T11:01:55;100122.63;;;19.26;46.59
85166;BME280;75533;52.100;10.228;2024-02-21T11:04:21;100111.56;;;19.26;46.66
85166;BME280;75533;52.100;10.228;2024-02-21T11:06:47;100109.22;;;19.30;46.45
85166;BME280;75533;52.100;10.228;2024-02-21T11:09:13;100103.03;;;19.34;46.52
85166;BME280;75533;52.100;10.228;2024-02-21T11:11:40;100097.06;;;19.37;46.37
85166;BME280;75533;52.100;10.228;2024-02-21T11:14:19;100088.53;;;19.39;46.29
85166;BME280;75533;52.100;10.228;2024-02-21T11:16:45;100090.25;;;19.40;46.33
85166;BME280;75533;52.100;10.228;2024-02-21T11:19:25;100078.28;;;19.46;46.36
85166;BME280;75533;52.100;10.228;2024-02-21T11:21:51;100071.03;;;19.45;46.32
85166;BME280;75533;52.100;10.228;2024-02-21T11:24:27;100071.69;;;19.47;46.28
85166;BME280;75533;52.100;10.228;2024-02-21T11:26:56;100071.88;;;19.52;46.27
85166;BME280;75533;52.100;10.228;2024-02-21T11:29:25;100060.41;;;19.55;46.23
85166;BME280;75533;52.100;10.228;2024-02-21T11:31:51;100067.63;;;19.56;46.31
85166;BME280;75533;52.100;10.228;2024-02-21T11:34:18;100051.03;;;19.56;46.38
85166;BME280;75533;52.100;10.228;2024-02-21T11:36:51;100053.53;;;19.51;45.15
85166;BME280;75533;52.100;10.228;2024-02-21T11:39:24;100052.22;;;19.15;44.00
85166;BME280;75533;52.100;10.228;2024-02-21T11:44:25;100036.38;;;19.36;44.67
85166;BME280;75533;52.100;10.228;2024-02-21T11:46:51;100028.50;;;19.39;45.17
85166;BME280;75533;52.100;10.228;2024-02-21T11:49:16;100027.63;;;19.39;45.51
85166;BME280;75533;52.100;10.228;2024-02-21T11:51:42;100027.41;;;19.40;45.62
85166;BME280;75533;52.100;10.228;2024-02-21T11:54:07;100019.50;;;19.44;45.57
85166;BME280;75533;52.100;10.228;2024-02-21T11:56:32;100018.66;;;19.43;45.74
85166;BME280;75533;52.100;10.228;2024-02-21T11:58:59;100010.13;;;19.45;45.84
85166;BME280;75533;52.100;10.228;2024-02-21T12:01:25;100008.41;;;19.50;45.75
85166;BME280;75533;52.100;10.228;2024-02-21T12:03:50;100008.47;;;19.37;44.86
85166;BME280;75533;52.100;10.228;2024-02-21T12:06:16;100006.16;;;19.34;44.65
85166;BME280;75533;52.100;10.228;2024-02-21T12:08:46;100001.25;;;19.36;45.23
85166;BME280;75533;52.100;10.228;2024-02-21T12:11:19;99996.56;;;19.37;45.68
85166;BME280;75533;52.100;10.228;2024-02-21T12:13:45;99999.94;;;19.39;45.61
85166;BME280;75533;52.100;10.228;2024-02-21T12:16:10;99982.72;;;19.37;45.79
85166;BME280;75533;52.100;10.228;2024-02-21T12:18:36;99977.81;;;19.39;45.64
85166;BME280;75533;52.100;10.228;2024-02-21T12:21:01;99972.25;;;19.39;45.70
85166;BME280;75533;52.100;10.228;2024-02-21T12:23:27;99965.88;;;19.38;45.70
85166;BME280;75533;52.100;10.228;2024-02-21T12:25:52;99963.34;;;19.37;45.92
85166;BME280;75533;52.100;10.228;2024-02-21T12:28:20;99966.69;;;19.45;45.87
85166;BME280;75533;52.100;10.228;2024-02-21T12:30:47;99955.59;;;19.45;45.75
85166;BME280;75533;52.100;10.228;2024-02-21T12:33:12;99952.63;;;19.47;45.69
85166;BME280;75533;52.100;10.228;2024-02-21T12:35:39;99944.94;;;19.49;45.84
85166;BME280;75533;52.100;10.228;2024-02-21T12:38:05;99945.56;;;19.51;45.68